createdAt,value
2023-03-23T15:59:00.138Z,1.00
2023-03-23T16:04:08.353Z,0.88
2023-03-23T16:09:18.916Z,1.08
2023-03-23T16:14:22.324Z,0.90
2023-03-23T16:19:25.696Z,0.90
2023-03-23T16:24:30.529Z,1.00
2023-03-23T16:29:59.790Z,1.02
2023-03-23T16:34:57.522Z,0.98
2023-03-23T16:40:03.103Z,1.02
2023-03-23T16:45:08.598Z,1.00
2023-03-23T16:50:15.806Z,1.00
2023-03-23T16:55:20.750Z,0.80
2023-03-23T17:00:25.625Z,0.80
2023-03-23T17:05:30.921Z,0.90
2023-03-23T17:10:36.918Z,1.10
2023-03-23T17:15:44.543Z,1.13
2023-03-23T17:20:50.057Z,0.93
2023-03-23T17:25:55.570Z,1.08
2023-03-23T17:30:59.064Z,0.90
2023-03-23T17:36:02.546Z,1.10
2023-03-23T17:41:08.385Z,1.00
2023-03-23T17:46:12.600Z,0.90
2023-03-23T17:51:16.366Z,1.10
2023-03-23T17:56:21.206Z,0.95
2023-03-23T18:01:24.647Z,1.10
2023-03-23T18:06:28.286Z,0.90
2023-03-23T18:11:33.349Z,1.20
2023-03-23T18:16:36.844Z,1.13
2023-03-23T18:21:40.410Z,0.80
2023-03-23T18:26:45.205Z,1.10
2023-03-23T18:31:48.709Z,1.10
2023-03-23T18:36:52.916Z,1.10
2023-03-23T18:41:57.688Z,1.00
2023-03-23T18:47:01.098Z,0.90
2023-03-23T18:52:05.472Z,1.10
2023-03-23T18:57:10.394Z,1.05
2023-03-23T19:02:14.076Z,0.90
2023-03-23T19:07:19.815Z,1.00
2023-03-23T19:12:24.708Z,1.10
2023-03-23T19:17:28.220Z,1.10
2023-03-23T19:22:31.694Z,1.10
2023-03-23T19:27:53.178Z,1.10
2023-03-23T19:33:01.227Z,1.17
2023-03-23T19:38:04.704Z,1.20
2023-03-23T19:43:10.348Z,1.10
2023-03-23T19:48:13.898Z,1.30
2023-03-23T19:53:19.158Z,1.30
2023-03-23T19:58:24.975Z,1.30
2023-03-23T20:03:28.542Z,1.20
2023-03-23T20:08:32.522Z,1.40
2023-03-23T20:13:37.400Z,1.30
2023-03-23T20:18:41.720Z,1.40
2023-03-23T20:23:46.041Z,1.30
2023-03-23T20:28:51.021Z,1.40
2023-03-23T20:34:02.084Z,1.35
2023-03-23T20:39:11.459Z,1.42
2023-03-23T20:44:17.034Z,1.30
2023-03-23T20:49:21.994Z,1.40
2023-03-23T20:54:25.453Z,1.40
2023-03-23T20:59:30.457Z,1.10
2023-03-23T21:04:33.849Z,1.40
2023-03-23T21:09:37.353Z,1.30
2023-03-23T21:14:42.308Z,1.30
2023-03-23T21:19:45.783Z,1.30
2023-03-23T21:24:50.347Z,1.35
2023-03-23T21:29:59.351Z,1.30
2023-03-23T21:35:03.482Z,1.38
2023-03-23T21:40:13.182Z,1.20
2023-03-23T21:45:20.978Z,1.48
2023-03-23T21:50:25.203Z,1.40
2023-03-23T21:55:29.616Z,1.40
2023-03-23T22:00:34.578Z,1.20
2023-03-23T22:05:41.474Z,1.50
2023-03-23T22:11:01.363Z,1.30
2023-03-23T22:16:11.378Z,1.55
2023-03-23T22:21:17.093Z,1.55
2023-03-23T22:26:21.803Z,1.60
2023-03-23T22:31:33.842Z,1.50
2023-03-23T22:36:38.773Z,1.90
2023-03-23T22:41:44.601Z,1.60
2023-03-23T22:46:49.730Z,1.60
2023-03-23T22:51:53.407Z,1.38
2023-03-23T22:56:57.083Z,1.50
2023-03-23T23:02:02.166Z,1.63
2023-03-23T23:07:12.903Z,1.70
2023-03-23T23:12:18.155Z,1.73
2023-03-23T23:17:23.194Z,1.50
2023-03-23T23:22:27.096Z,1.55
2023-03-23T23:27:33.722Z,1.75
2023-03-23T23:32:39.361Z,1.60
2023-03-23T23:37:43.162Z,1.90
2023-03-23T23:42:49.226Z,1.75
2023-03-23T23:47:54.359Z,1.33
2023-03-23T23:52:58.656Z,1.88
2023-03-23T23:58:02.384Z,1.60
